KBKL/BKL METAR and TAF weather

Enter ICAO airport designator
Station Type Date Time Source
KBKL METAR 2019/04/26 02:53 UTC NOAA

KBKL 260253Z 15010KT 10SM BKN080 BKN110 16/14 A2964 RMK AO2 SLP040 60006 T01610139 58030 $


Station Type Date Time Source
KBKL Decoded METAR 2019/04/26 02:53 UTC NOAA

CLEVELAND BURKE LAKEFRONT, OH, United States (KBKL) 41-32N 81-40W 184M
Apr 25, 2019 - 10:53 PM EDT / 2019.04.26 0253 UTC
Wind: from the SSE (150 degrees) at 12 MPH (10 KT):0
Visibility: 10 mile(s):0
Sky conditions: mostly cloudy
Temperature: 61.0 F (16.1 C)
Dew Point: 57.0 F (13.9 C)
Relative Humidity: 86%
Pressure (altimeter): 29.64 in. Hg (1003 hPa)
Pressure tendency: 0.09 inches (3.0 hPa) lower than three hours ago
ob: KBKL 260253Z 15010KT 10SM BKN080 BKN110 16/14 A2964 RMK AO2 SLP040 60006 T01610139 58030
cycle: 3

Station Type Date Time Source
KBKL TAF UTC NOAA

Error!

Example: see airport list